Ander, Texas
Current Conditions -  °F | °C
As of 6:35 PM on Tuesday 25 Nov 2014 (Local Time) from KBEA Reporting Station
Clear Clear  
Wind Chill: 57°   Ceiling: Unl
Heat Index: 57°   Visibility: 10mi
Dew Point: 31°   Wind: 0mph
Humidity: 38%   Direction: NA
Pressure: 30.25"   Gusts: NA
Location:  28.6563°N, 97.4287°W
Report Text: KBEA 260035Z AUTO 00000KT 10SM CLR 14/00 A3025 RMK AO2 T01381004
Loading
Personal Weather Stations






























Interactive Weather Map New forecast layout! Learn more

10-Day Weather Forecast

Advertisements
Track Severe Weather on mobile